Time;durP1;ratioP1;P1;durP2;ratioP2;P2;SDS_P1;SDS_P2;PMS_P1;PMS_P2;Temp;Humidity;BMP_temperature;BMP_pressure;BME280_temperature;BME280_humidity;BME280_pressure;Samples;Min_cycle;Max_cycle;Signal;HPM_P1;HPM_P2
2020/10/16 00:00:40;;;;;;;20.7;13.35;;;;;;;6.8;100;94954.06;;;;
2020/10/16 00:03:06;;;;;;;20.7;13.35;;;;;;;6.8;100;94954.06;;;;
2020/10/16 00:10:27;;;;;;;24.95;14.9;;;;;;;6.79;100;94964.09;;;;
2020/10/16 00:13:54;;;;;;;24.95;14.9;;;;;;;6.79;100;94964.09;;;;
2020/10/16 00:18:30;;;;;;;22.85;13.85;;;;;;;6.88;100;94983.83;;;;
2020/10/16 00:19:38;;;;;;;22.85;13.85;;;;;;;6.88;100;94983.83;;;;
2020/10/16 00:20:43;;;;;;;22.85;13.85;;;;;;;6.88;100;94983.83;;;;
2020/10/16 00:21:51;;;;;;;22.85;13.85;;;;;;;6.88;100;94983.83;;;;
2020/10/16 00:24:08;;;;;;;22.85;13.85;;;;;;;6.88;100;94983.83;;;;
2020/10/16 00:25:22;;;;;;;22.85;13.85;;;;;;;6.88;100;94983.83;;;;
2020/10/16 00:26:23;;;;;;;22.85;13.85;;;;;;;6.88;100;94983.83;;;;
2020/10/16 00:27:35;;;;;;;22.85;13.85;;;;;;;6.88;100;94983.83;;;;
2020/10/16 00:28:47;;;;;;;22.85;13.85;;;;;;;6.88;100;94983.83;;;;
2020/10/16 00:29:50;;;;;;;22.1;13.5;;;;;;;6.89;100;94981.34;;;;
2020/10/16 00:30:52;;;;;;;22.1;13.5;;;;;;;6.89;100;94981.34;;;;
2020/10/16 00:31:53;;;;;;;22.1;13.5;;;;;;;6.89;100;94981.34;;;;
2020/10/16 00:32:54;;;;;;;22.1;13.5;;;;;;;6.89;100;94981.34;;;;
2020/10/16 00:33:54;;;;;;;22.1;13.5;;;;;;;6.89;100;94981.34;;;;
2020/10/16 00:34:57;;;;;;;22.1;13.5;;;;;;;6.89;100;94981.34;;;;
2020/10/16 00:35:58;;;;;;;22.1;13.5;;;;;;;6.89;100;94981.34;;;;
2020/10/16 00:37:00;;;;;;;22.1;13.5;;;;;;;6.89;100;94981.34;;;;
2020/10/16 00:38:00;;;;;;;22.1;13.5;;;;;;;6.89;100;94981.34;;;;
2020/10/16 00:39:01;;;;;;;22.1;13.5;;;;;;;6.89;100;94981.34;;;;
2020/10/16 00:40:12;;;;;;;22.95;13.35;;;;;;;6.89;100;94974.22;;;;
2020/10/16 00:41:12;;;;;;;22.95;13.35;;;;;;;6.89;100;94974.22;;;;
2020/10/16 00:42:16;;;;;;;22.95;13.35;;;;;;;6.89;100;94974.22;;;;
2020/10/16 00:43:30;;;;;;;22.95;13.35;;;;;;;6.89;100;94974.22;;;;
2020/10/16 00:44:39;;;;;;;22.95;13.35;;;;;;;6.89;100;94974.22;;;;
2020/10/16 00:45:40;;;;;;;22.95;13.35;;;;;;;6.89;100;94974.22;;;;
2020/10/16 00:46:53;;;;;;;22.95;13.35;;;;;;;6.89;100;94974.22;;;;
2020/10/16 00:47:54;;;;;;;22.95;13.35;;;;;;;6.89;100;94974.22;;;;
2020/10/16 00:49:10;;;;;;;22.95;13.35;;;;;;;6.89;100;94974.22;;;;
2020/10/16 00:50:29;;;;;;;23.65;14.4;;;;;;;7;100;94969.59;;;;
2020/10/16 00:51:29;;;;;;;23.65;14.4;;;;;;;7;100;94969.59;;;;
2020/10/16 00:52:30;;;;;;;23.65;14.4;;;;;;;7;100;94969.59;;;;
2020/10/16 00:53:30;;;;;;;23.65;14.4;;;;;;;7;100;94969.59;;;;
2020/10/16 00:54:31;;;;;;;23.65;14.4;;;;;;;7;100;94969.59;;;;
2020/10/16 00:55:31;;;;;;;23.65;14.4;;;;;;;7;100;94969.59;;;;
2020/10/16 00:56:32;;;;;;;23.65;14.4;;;;;;;7;100;94969.59;;;;
2020/10/16 00:57:34;;;;;;;23.65;14.4;;;;;;;7;100;94969.59;;;;
2020/10/16 00:58:35;;;;;;;23.65;14.4;;;;;;;7;100;94969.59;;;;
2020/10/16 00:59:36;;;;;;;23.65;14.4;;;;;;;7;100;94969.59;;;;
2020/10/16 01:00:36;;;;;;;23.65;14.4;;;;;;;7;100;94969.59;;;;
2020/10/16 01:01:37;;;;;;;18.65;12;;;;;;;7.01;100;94967.1;;;;
2020/10/16 01:02:40;;;;;;;18.65;12;;;;;;;7.01;100;94967.1;;;;
2020/10/16 01:03:43;;;;;;;18.65;12;;;;;;;7.01;100;94967.1;;;;
2020/10/16 01:04:46;;;;;;;18.65;12;;;;;;;7.01;100;94967.1;;;;
2020/10/16 01:05:47;;;;;;;18.65;12;;;;;;;7.01;100;94967.1;;;;
2020/10/16 01:06:48;;;;;;;18.65;12;;;;;;;7.01;100;94967.1;;;;
2020/10/16 01:07:54;;;;;;;18.65;12;;;;;;;7.01;100;94967.1;;;;
2020/10/16 01:08:55;;;;;;;18.65;12;;;;;;;7.01;100;94967.1;;;;
2020/10/16 01:09:57;;;;;;;18.65;12;;;;;;;7.01;100;94967.1;;;;
2020/10/16 01:10:58;;;;;;;18.65;12;;;;;;;7.01;100;94967.1;;;;
2020/10/16 01:11:58;;;;;;;17.1;11.75;;;;;;;7.06;100;94966.42;;;;
2020/10/16 01:12:59;;;;;;;17.1;11.75;;;;;;;7.06;100;94966.42;;;;
2020/10/16 01:14:00;;;;;;;17.1;11.75;;;;;;;7.06;100;94966.42;;;;
2020/10/16 01:15:00;;;;;;;17.1;11.75;;;;;;;7.06;100;94966.42;;;;
2020/10/16 01:16:01;;;;;;;17.1;11.75;;;;;;;7.06;100;94966.42;;;;
2020/10/16 01:17:05;;;;;;;17.1;11.75;;;;;;;7.06;100;94966.42;;;;
2020/10/16 01:18:08;;;;;;;17.1;11.75;;;;;;;7.06;100;94966.42;;;;
2020/10/16 01:19:09;;;;;;;17.1;11.75;;;;;;;7.06;100;94966.42;;;;
2020/10/16 01:20:09;;;;;;;17.1;11.75;;;;;;;7.06;100;94966.42;;;;
2020/10/16 01:21:10;;;;;;;17.1;11.75;;;;;;;7.06;100;94966.42;;;;
2020/10/16 01:22:12;;;;;;;17.1;11.75;;;;;;;7.06;100;94966.42;;;;
2020/10/16 01:23:12;;;;;;;17.2;11.45;;;;;;;7.01;100;94969.37;;;;
2020/10/16 01:24:13;;;;;;;17.2;11.45;;;;;;;7.01;100;94969.37;;;;
2020/10/16 01:25:13;;;;;;;17.2;11.45;;;;;;;7.01;100;94969.37;;;;
2020/10/16 01:26:16;;;;;;;17.2;11.45;;;;;;;7.01;100;94969.37;;;;
2020/10/16 01:27:19;;;;;;;17.2;11.45;;;;;;;7.01;100;94969.37;;;;
2020/10/16 01:28:22;;;;;;;17.2;11.45;;;;;;;7.01;100;94969.37;;;;
2020/10/16 01:29:22;;;;;;;17.2;11.45;;;;;;;7.01;100;94969.37;;;;
2020/10/16 01:30:23;;;;;;;17.2;11.45;;;;;;;7.01;100;94969.37;;;;
2020/10/16 01:31:23;;;;;;;17.2;11.45;;;;;;;7.01;100;94969.37;;;;
2020/10/16 01:32:25;;;;;;;17.2;11.45;;;;;;;7.01;100;94969.37;;;;
2020/10/16 01:33:26;;;;;;;18.85;11.75;;;;;;;6.99;100;94967.94;;;;
2020/10/16 01:34:26;;;;;;;18.85;11.75;;;;;;;6.99;100;94967.94;;;;
2020/10/16 01:35:27;;;;;;;18.85;11.75;;;;;;;6.99;100;94967.94;;;;
2020/10/16 01:36:34;;;;;;;18.85;11.75;;;;;;;6.99;100;94967.94;;;;
2020/10/16 01:37:43;;;;;;;18.85;11.75;;;;;;;6.99;100;94967.94;;;;
2020/10/16 01:38:44;;;;;;;18.85;11.75;;;;;;;6.99;100;94967.94;;;;
2020/10/16 01:39:50;;;;;;;18.85;11.75;;;;;;;6.99;100;94967.94;;;;
2020/10/16 01:40:55;;;;;;;18.85;11.75;;;;;;;6.99;100;94967.94;;;;
2020/10/16 01:41:59;;;;;;;18.85;11.75;;;;;;;6.99;100;94967.94;;;;
2020/10/16 01:43:11;;;;;;;18.85;11.75;;;;;;;6.99;100;94967.94;;;;
2020/10/16 01:44:12;;;;;;;15.8;10.95;;;;;;;6.97;100;94969.5;;;;
2020/10/16 01:45:16;;;;;;;15.8;10.95;;;;;;;6.97;100;94969.5;;;;
2020/10/16 01:46:33;;;;;;;15.8;10.95;;;;;;;6.97;100;94969.5;;;;
2020/10/16 01:47:46;;;;;;;15.8;10.95;;;;;;;6.97;100;94969.5;;;;
2020/10/16 01:48:53;;;;;;;15.8;10.95;;;;;;;6.97;100;94969.5;;;;
2020/10/16 01:49:53;;;;;;;15.8;10.95;;;;;;;6.97;100;94969.5;;;;
2020/10/16 01:50:55;;;;;;;15.8;10.95;;;;;;;6.97;100;94969.5;;;;
2020/10/16 01:51:55;;;;;;;15.8;10.95;;;;;;;6.97;100;94969.5;;;;
2020/10/16 01:54:08;;;;;;;15.8;10.95;;;;;;;6.97;100;94969.5;;;;
2020/10/16 01:55:08;;;;;;;16.75;10.3;;;;;;;6.93;100;94958.91;;;;
2020/10/16 01:56:09;;;;;;;16.75;10.3;;;;;;;6.93;100;94958.91;;;;
2020/10/16 01:57:09;;;;;;;16.75;10.3;;;;;;;6.93;100;94958.91;;;;
2020/10/16 01:58:10;;;;;;;16.75;10.3;;;;;;;6.93;100;94958.91;;;;
2020/10/16 01:59:15;;;;;;;16.75;10.3;;;;;;;6.93;100;94958.91;;;;
2020/10/16 02:00:16;;;;;;;16.75;10.3;;;;;;;6.93;100;94958.91;;;;
2020/10/16 02:01:19;;;;;;;16.75;10.3;;;;;;;6.93;100;94958.91;;;;
2020/10/16 02:02:22;;;;;;;16.75;10.3;;;;;;;6.93;100;94958.91;;;;
2020/10/16 02:03:34;;;;;;;16.75;10.3;;;;;;;6.93;100;94958.91;;;;
2020/10/16 02:04:38;;;;;;;16.75;10.3;;;;;;;6.93;100;94958.91;;;;
2020/10/16 02:05:40;;;;;;;14;9.599999;;;;;;;6.87;100;94963.29;;;;
2020/10/16 02:06:42;;;;;;;14;9.599999;;;;;;;6.87;100;94963.29;;;;
2020/10/16 02:07:43;;;;;;;14;9.599999;;;;;;;6.87;100;94963.29;;;;
2020/10/16 02:08:43;;;;;;;14;9.599999;;;;;;;6.87;100;94963.29;;;;
2020/10/16 02:09:44;;;;;;;14;9.599999;;;;;;;6.87;100;94963.29;;;;
2020/10/16 02:10:47;;;;;;;14;9.599999;;;;;;;6.87;100;94963.29;;;;
2020/10/16 02:11:49;;;;;;;14;9.599999;;;;;;;6.87;100;94963.29;;;;
2020/10/16 02:12:57;;;;;;;14;9.599999;;;;;;;6.87;100;94963.29;;;;
2020/10/16 02:13:58;;;;;;;14;9.599999;;;;;;;6.87;100;94963.29;;;;
2020/10/16 02:14:58;;;;;;;14;9.599999;;;;;;;6.87;100;94963.29;;;;
2020/10/16 02:15:59;;;;;;;13.55;9.550001;;;;;;;6.88;100;94958.23;;;;
2020/10/16 02:17:00;;;;;;;13.55;9.550001;;;;;;;6.88;100;94958.23;;;;
2020/10/16 02:18:27;;;;;;;13.55;9.550001;;;;;;;6.88;100;94958.23;;;;
2020/10/16 02:19:27;;;;;;;13.55;9.550001;;;;;;;6.88;100;94958.23;;;;
2020/10/16 02:20:29;;;;;;;13.55;9.550001;;;;;;;6.88;100;94958.23;;;;
2020/10/16 02:21:31;;;;;;;13.55;9.550001;;;;;;;6.88;100;94958.23;;;;
2020/10/16 02:22:32;;;;;;;13.55;9.550001;;;;;;;6.88;100;94958.23;;;;
2020/10/16 02:23:40;;;;;;;13.55;9.550001;;;;;;;6.88;100;94958.23;;;;
2020/10/16 02:24:41;;;;;;;13.55;9.550001;;;;;;;6.88;100;94958.23;;;;
2020/10/16 02:25:41;;;;;;;13.55;9.550001;;;;;;;6.88;100;94958.23;;;;
2020/10/16 02:26:42;;;;;;;14.7;9.6;;;;;;;6.79;100;94956.47;;;;
2020/10/16 02:27:46;;;;;;;14.7;9.6;;;;;;;6.79;100;94956.47;;;;
2020/10/16 02:28:47;;;;;;;14.7;9.6;;;;;;;6.79;100;94956.47;;;;
2020/10/16 02:29:47;;;;;;;14.7;9.6;;;;;;;6.79;100;94956.47;;;;
2020/10/16 02:30:48;;;;;;;14.7;9.6;;;;;;;6.79;100;94956.47;;;;
2020/10/16 02:31:51;;;;;;;14.7;9.6;;;;;;;6.79;100;94956.47;;;;
2020/10/16 02:32:52;;;;;;;14.7;9.6;;;;;;;6.79;100;94956.47;;;;
2020/10/16 02:33:55;;;;;;;14.7;9.6;;;;;;;6.79;100;94956.47;;;;
2020/10/16 02:34:55;;;;;;;14.7;9.6;;;;;;;6.79;100;94956.47;;;;
2020/10/16 02:35:56;;;;;;;14.7;9.6;;;;;;;6.79;100;94956.47;;;;
2020/10/16 02:36:59;;;;;;;14.7;9.6;;;;;;;6.79;100;94956.47;;;;
2020/10/16 02:38:00;;;;;;;13.85;9.75;;;;;;;6.72;100;94957.56;;;;
2020/10/16 02:39:02;;;;;;;13.85;9.75;;;;;;;6.72;100;94957.56;;;;
2020/10/16 02:40:03;;;;;;;13.85;9.75;;;;;;;6.72;100;94957.56;;;;
2020/10/16 02:41:13;;;;;;;13.85;9.75;;;;;;;6.72;100;94957.56;;;;
2020/10/16 02:42:28;;;;;;;13.85;9.75;;;;;;;6.72;100;94957.56;;;;
2020/10/16 02:43:28;;;;;;;13.85;9.75;;;;;;;6.72;100;94957.56;;;;
2020/10/16 02:44:32;;;;;;;13.85;9.75;;;;;;;6.72;100;94957.56;;;;
2020/10/16 02:45:32;;;;;;;13.85;9.75;;;;;;;6.72;100;94957.56;;;;
2020/10/16 02:46:34;;;;;;;13.85;9.75;;;;;;;6.72;100;94957.56;;;;
2020/10/16 02:47:35;;;;;;;13.85;9.75;;;;;;;6.72;100;94957.56;;;;
2020/10/16 02:48:35;;;;;;;16;10.65;;;;;;;6.66;100;94953.48;;;;
2020/10/16 02:49:40;;;;;;;16;10.65;;;;;;;6.66;100;94953.48;;;;
2020/10/16 02:50:42;;;;;;;16;10.65;;;;;;;6.66;100;94953.48;;;;
2020/10/16 02:51:42;;;;;;;16;10.65;;;;;;;6.66;100;94953.48;;;;
2020/10/16 02:52:42;;;;;;;16;10.65;;;;;;;6.66;100;94953.48;;;;
2020/10/16 02:53:43;;;;;;;16;10.65;;;;;;;6.66;100;94953.48;;;;
2020/10/16 02:54:44;;;;;;;16;10.65;;;;;;;6.66;100;94953.48;;;;
2020/10/16 02:55:45;;;;;;;16;10.65;;;;;;;6.66;100;94953.48;;;;
2020/10/16 02:56:45;;;;;;;16;10.65;;;;;;;6.66;100;94953.48;;;;
2020/10/16 02:57:46;;;;;;;16;10.65;;;;;;;6.66;100;94953.48;;;;
2020/10/16 02:58:46;;;;;;;12.85;9.25;;;;;;;6.69;100;94961.11;;;;
2020/10/16 02:59:47;;;;;;;12.85;9.25;;;;;;;6.69;100;94961.11;;;;
2020/10/16 03:00:48;;;;;;;12.85;9.25;;;;;;;6.69;100;94961.11;;;;
2020/10/16 03:01:49;;;;;;;12.85;9.25;;;;;;;6.69;100;94961.11;;;;
2020/10/16 03:02:53;;;;;;;12.85;9.25;;;;;;;6.69;100;94961.11;;;;
2020/10/16 03:03:53;;;;;;;12.85;9.25;;;;;;;6.69;100;94961.11;;;;
2020/10/16 03:04:55;;;;;;;12.85;9.25;;;;;;;6.69;100;94961.11;;;;
2020/10/16 03:06:00;;;;;;;12.85;9.25;;;;;;;6.69;100;94961.11;;;;
2020/10/16 03:11:46;;;;;;;12.6;8.400002;;;;;;;6.63;100;94960.13;;;;
2020/10/16 03:12:50;;;;;;;12.6;8.400002;;;;;;;6.63;100;94960.13;;;;
2020/10/16 03:13:52;;;;;;;12.6;8.400002;;;;;;;6.63;100;94960.13;;;;
2020/10/16 03:14:53;;;;;;;12.6;8.400002;;;;;;;6.63;100;94960.13;;;;
2020/10/16 03:15:53;;;;;;;12.6;8.400002;;;;;;;6.63;100;94960.13;;;;
2020/10/16 03:16:54;;;;;;;12.6;8.400002;;;;;;;6.63;100;94960.13;;;;
2020/10/16 03:17:54;;;;;;;12.6;8.400002;;;;;;;6.63;100;94960.13;;;;
2020/10/16 03:18:58;;;;;;;12.6;8.400002;;;;;;;6.63;100;94960.13;;;;
2020/10/16 03:19:59;;;;;;;12.55;8.500002;;;;;;;6.58;100;94954.19;;;;
2020/10/16 03:22:05;;;;;;;12.55;8.500002;;;;;;;6.58;100;94954.19;;;;
2020/10/16 03:23:05;;;;;;;12.55;8.500002;;;;;;;6.58;100;94954.19;;;;
2020/10/16 03:24:10;;;;;;;12.55;8.500002;;;;;;;6.58;100;94954.19;;;;
2020/10/16 03:25:10;;;;;;;12.55;8.500002;;;;;;;6.58;100;94954.19;;;;
2020/10/16 03:26:20;;;;;;;12.55;8.500002;;;;;;;6.58;100;94954.19;;;;
2020/10/16 03:27:40;;;;;;;12.55;8.500002;;;;;;;6.58;100;94954.19;;;;
2020/10/16 03:28:40;;;;;;;12.55;8.500002;;;;;;;6.58;100;94954.19;;;;
2020/10/16 03:29:43;;;;;;;12.55;8.500002;;;;;;;6.58;100;94954.19;;;;
2020/10/16 03:30:43;;;;;;;11.3;7.949999;;;;;;;6.61;100;94949.3;;;;
2020/10/16 03:31:44;;;;;;;11.3;7.949999;;;;;;;6.61;100;94949.3;;;;
2020/10/16 03:32:47;;;;;;;11.3;7.949999;;;;;;;6.61;100;94949.3;;;;
2020/10/16 03:33:48;;;;;;;11.3;7.949999;;;;;;;6.61;100;94949.3;;;;
2020/10/16 03:34:52;;;;;;;11.3;7.949999;;;;;;;6.61;100;94949.3;;;;
2020/10/16 03:35:52;;;;;;;11.3;7.949999;;;;;;;6.61;100;94949.3;;;;
2020/10/16 03:36:53;;;;;;;11.3;7.949999;;;;;;;6.61;100;94949.3;;;;
2020/10/16 03:37:54;;;;;;;11.3;7.949999;;;;;;;6.61;100;94949.3;;;;
2020/10/16 03:39:24;;;;;;;11.3;7.949999;;;;;;;6.61;100;94949.3;;;;
2020/10/16 03:40:25;;;;;;;11.3;7.949999;;;;;;;6.61;100;94949.3;;;;
2020/10/16 03:41:26;;;;;;;14.05;8.4;;;;;;;6.55;100;94958.62;;;;
2020/10/16 03:42:26;;;;;;;14.05;8.4;;;;;;;6.55;100;94958.62;;;;
2020/10/16 03:43:27;;;;;;;14.05;8.4;;;;;;;6.55;100;94958.62;;;;
2020/10/16 03:44:28;;;;;;;14.05;8.4;;;;;;;6.55;100;94958.62;;;;
2020/10/16 03:45:32;;;;;;;14.05;8.4;;;;;;;6.55;100;94958.62;;;;
2020/10/16 03:46:32;;;;;;;14.05;8.4;;;;;;;6.55;100;94958.62;;;;
2020/10/16 03:47:33;;;;;;;14.05;8.4;;;;;;;6.55;100;94958.62;;;;
2020/10/16 03:48:34;;;;;;;14.05;8.4;;;;;;;6.55;100;94958.62;;;;
2020/10/16 03:49:34;;;;;;;14.05;8.4;;;;;;;6.55;100;94958.62;;;;
2020/10/16 03:50:39;;;;;;;14.05;8.4;;;;;;;6.55;100;94958.62;;;;
2020/10/16 03:51:39;;;;;;;14.05;8.4;;;;;;;6.55;100;94958.62;;;;
2020/10/16 03:52:40;;;;;;;13.7;8.450002;;;;;;;6.49;100;94967.99;;;;
2020/10/16 03:53:40;;;;;;;13.7;8.450002;;;;;;;6.49;100;94967.99;;;;
2020/10/16 03:54:42;;;;;;;13.7;8.450002;;;;;;;6.49;100;94967.99;;;;
2020/10/16 03:55:43;;;;;;;13.7;8.450002;;;;;;;6.49;100;94967.99;;;;
2020/10/16 03:56:43;;;;;;;13.7;8.450002;;;;;;;6.49;100;94967.99;;;;
2020/10/16 03:57:44;;;;;;;13.7;8.450002;;;;;;;6.49;100;94967.99;;;;
2020/10/16 03:58:45;;;;;;;13.7;8.450002;;;;;;;6.49;100;94967.99;;;;
2020/10/16 03:59:47;;;;;;;13.7;8.450002;;;;;;;6.49;100;94967.99;;;;
2020/10/16 04:00:49;;;;;;;13.7;8.450002;;;;;;;6.49;100;94967.99;;;;
2020/10/16 04:01:51;;;;;;;13.7;8.450002;;;;;;;6.49;100;94967.99;;;;
2020/10/16 04:02:52;;;;;;;15;8.95;;;;;;;6.51;100;94956.62;;;;
2020/10/16 04:03:53;;;;;;;15;8.95;;;;;;;6.51;100;94956.62;;;;
2020/10/16 04:04:54;;;;;;;15;8.95;;;;;;;6.51;100;94956.62;;;;
2020/10/16 04:05:56;;;;;;;15;8.95;;;;;;;6.51;100;94956.62;;;;
2020/10/16 04:06:56;;;;;;;15;8.95;;;;;;;6.51;100;94956.62;;;;
2020/10/16 04:08:00;;;;;;;15;8.95;;;;;;;6.51;100;94956.62;;;;
2020/10/16 04:09:21;;;;;;;15;8.95;;;;;;;6.51;100;94956.62;;;;
2020/10/16 04:10:40;;;;;;;15;8.95;;;;;;;6.51;100;94956.62;;;;
2020/10/16 04:11:41;;;;;;;15;8.95;;;;;;;6.51;100;94956.62;;;;
2020/10/16 04:12:42;;;;;;;15;8.95;;;;;;;6.51;100;94956.62;;;;
2020/10/16 04:13:46;;;;;;;14.65;8.25;;;;;;;6.46;100;94955.91;;;;
2020/10/16 04:14:47;;;;;;;14.65;8.25;;;;;;;6.46;100;94955.91;;;;
2020/10/16 04:15:47;;;;;;;14.65;8.25;;;;;;;6.46;100;94955.91;;;;
2020/10/16 04:16:51;;;;;;;14.65;8.25;;;;;;;6.46;100;94955.91;;;;
2020/10/16 04:17:52;;;;;;;14.65;8.25;;;;;;;6.46;100;94955.91;;;;
2020/10/16 04:18:54;;;;;;;14.65;8.25;;;;;;;6.46;100;94955.91;;;;
2020/10/16 04:19:55;;;;;;;14.65;8.25;;;;;;;6.46;100;94955.91;;;;
2020/10/16 04:20:56;;;;;;;14.65;8.25;;;;;;;6.46;100;94955.91;;;;
2020/10/16 04:21:57;;;;;;;14.65;8.25;;;;;;;6.46;100;94955.91;;;;
2020/10/16 04:23:02;;;;;;;14.65;8.25;;;;;;;6.46;100;94955.91;;;;
2020/10/16 04:24:05;;;;;;;15.25;8.35;;;;;;;6.41;100;94964.22;;;;
2020/10/16 04:25:08;;;;;;;15.25;8.35;;;;;;;6.41;100;94964.22;;;;
2020/10/16 04:26:08;;;;;;;15.25;8.35;;;;;;;6.41;100;94964.22;;;;
2020/10/16 04:27:14;;;;;;;15.25;8.35;;;;;;;6.41;100;94964.22;;;;
2020/10/16 04:28:22;;;;;;;15.25;8.35;;;;;;;6.41;100;94964.22;;;;
2020/10/16 04:29:46;;;;;;;15.25;8.35;;;;;;;6.41;100;94964.22;;;;
2020/10/16 04:30:46;;;;;;;15.25;8.35;;;;;;;6.41;100;94964.22;;;;
2020/10/16 04:31:51;;;;;;;15.25;8.35;;;;;;;6.41;100;94964.22;;;;
2020/10/16 04:32:52;;;;;;;15.25;8.35;;;;;;;6.41;100;94964.22;;;;
2020/10/16 04:34:27;;;;;;;14.7;9.000002;;;;;;;6.41;100;94966.06;;;;
2020/10/16 04:35:31;;;;;;;14.7;9.000002;;;;;;;6.41;100;94966.06;;;;
2020/10/16 04:36:44;;;;;;;14.7;9.000002;;;;;;;6.41;100;94966.06;;;;
2020/10/16 04:38:00;;;;;;;14.7;9.000002;;;;;;;6.41;100;94966.06;;;;
2020/10/16 04:39:07;;;;;;;14.7;9.000002;;;;;;;6.41;100;94966.06;;;;
2020/10/16 04:40:15;;;;;;;14.7;9.000002;;;;;;;6.41;100;94966.06;;;;
2020/10/16 04:41:46;;;;;;;14.7;9.000002;;;;;;;6.41;100;94966.06;;;;
2020/10/16 04:42:55;;;;;;;14.7;9.000002;;;;;;;6.41;100;94966.06;;;;
2020/10/16 04:44:18;;;;;;;14.7;9.000002;;;;;;;6.41;100;94966.06;;;;
2020/10/16 04:45:21;;;;;;;16.3;9.049998;;;;;;;6.42;100;94966.39;;;;
2020/10/16 04:46:27;;;;;;;16.3;9.049998;;;;;;;6.42;100;94966.39;;;;
2020/10/16 04:47:30;;;;;;;16.3;9.049998;;;;;;;6.42;100;94966.39;;;;
2020/10/16 04:49:12;;;;;;;16.3;9.049998;;;;;;;6.42;100;94966.39;;;;
2020/10/16 04:50:13;;;;;;;16.3;9.049998;;;;;;;6.42;100;94966.39;;;;
2020/10/16 04:51:14;;;;;;;16.3;9.049998;;;;;;;6.42;100;94966.39;;;;
2020/10/16 04:52:17;;;;;;;16.3;9.049998;;;;;;;6.42;100;94966.39;;;;
2020/10/16 04:53:36;;;;;;;16.3;9.049998;;;;;;;6.42;100;94966.39;;;;
2020/10/16 04:54:48;;;;;;;16.3;9.049998;;;;;;;6.42;100;94966.39;;;;
2020/10/16 04:55:49;;;;;;;15.5;8.550001;;;;;;;6.44;100;94962.97;;;;
2020/10/16 04:56:52;;;;;;;15.5;8.550001;;;;;;;6.44;100;94962.97;;;;
2020/10/16 04:57:53;;;;;;;15.5;8.550001;;;;;;;6.44;100;94962.97;;;;
2020/10/16 04:58:53;;;;;;;15.5;8.550001;;;;;;;6.44;100;94962.97;;;;
2020/10/16 04:59:57;;;;;;;15.5;8.550001;;;;;;;6.44;100;94962.97;;;;
2020/10/16 05:00:59;;;;;;;15.5;8.550001;;;;;;;6.44;100;94962.97;;;;
2020/10/16 05:02:00;;;;;;;15.5;8.550001;;;;;;;6.44;100;94962.97;;;;
2020/10/16 05:03:07;;;;;;;15.5;8.550001;;;;;;;6.44;100;94962.97;;;;
2020/10/16 05:04:10;;;;;;;15.5;8.550001;;;;;;;6.44;100;94962.97;;;;
2020/10/16 05:05:17;;;;;;;15.5;8.550001;;;;;;;6.44;100;94962.97;;;;
2020/10/16 05:06:17;;;;;;;15.5;8.550001;;;;;;;6.44;100;94962.97;;;;
2020/10/16 05:07:20;;;;;;;15.5;9.099999;;;;;;;6.43;100;94963.48;;;;
2020/10/16 05:08:21;;;;;;;15.5;9.099999;;;;;;;6.43;100;94963.48;;;;
2020/10/16 05:09:22;;;;;;;15.5;9.099999;;;;;;;6.43;100;94963.48;;;;
2020/10/16 05:10:29;;;;;;;15.5;9.099999;;;;;;;6.43;100;94963.48;;;;
2020/10/16 05:11:42;;;;;;;15.5;9.099999;;;;;;;6.43;100;94963.48;;;;
2020/10/16 05:12:51;;;;;;;15.5;9.099999;;;;;;;6.43;100;94963.48;;;;
2020/10/16 05:13:56;;;;;;;15.5;9.099999;;;;;;;6.43;100;94963.48;;;;
2020/10/16 05:14:56;;;;;;;15.5;9.099999;;;;;;;6.43;100;94963.48;;;;
2020/10/16 05:16:00;;;;;;;15.5;9.099999;;;;;;;6.43;100;94963.48;;;;
2020/10/16 05:17:07;;;;;;;16.25;8.85;;;;;;;6.45;100;94960.16;;;;
2020/10/16 05:18:13;;;;;;;16.25;8.85;;;;;;;6.45;100;94960.16;;;;
2020/10/16 05:19:14;;;;;;;16.25;8.85;;;;;;;6.45;100;94960.16;;;;
2020/10/16 05:25:08;;;;;;;16.25;8.85;;;;;;;6.45;100;94960.16;;;;
2020/10/16 05:26:22;;;;;;;16.25;8.85;;;;;;;6.45;100;94960.16;;;;
2020/10/16 05:27:29;;;;;;;16.25;8.85;;;;;;;6.45;100;94960.16;;;;
2020/10/16 05:28:37;;;;;;;16.15;9.25;;;;;;;6.48;100;94964.56;;;;
2020/10/16 05:29:40;;;;;;;16.15;9.25;;;;;;;6.48;100;94964.56;;;;
2020/10/16 05:30:42;;;;;;;16.15;9.25;;;;;;;6.48;100;94964.56;;;;
2020/10/16 05:31:46;;;;;;;16.15;9.25;;;;;;;6.48;100;94964.56;;;;
2020/10/16 05:33:30;;;;;;;16.15;9.25;;;;;;;6.48;100;94964.56;;;;
2020/10/16 05:34:36;;;;;;;16.15;9.25;;;;;;;6.48;100;94964.56;;;;
2020/10/16 05:35:37;;;;;;;16.15;9.25;;;;;;;6.48;100;94964.56;;;;
2020/10/16 05:36:50;;;;;;;16.15;9.25;;;;;;;6.48;100;94964.56;;;;
2020/10/16 05:38:10;;;;;;;16.15;9.25;;;;;;;6.48;100;94964.56;;;;
2020/10/16 05:39:22;;;;;;;16.55;9.4;;;;;;;6.59;100;94967.47;;;;
2020/10/16 05:40:23;;;;;;;16.55;9.4;;;;;;;6.59;100;94967.47;;;;
2020/10/16 05:41:27;;;;;;;16.55;9.4;;;;;;;6.59;100;94967.47;;;;
2020/10/16 05:44:58;;;;;;;16.55;9.4;;;;;;;6.59;100;94967.47;;;;
2020/10/16 05:46:12;;;;;;;16.55;9.4;;;;;;;6.59;100;94967.47;;;;
2020/10/16 05:47:18;;;;;;;16.55;9.4;;;;;;;6.59;100;94967.47;;;;
2020/10/16 05:48:19;;;;;;;16.55;9.4;;;;;;;6.59;100;94967.47;;;;
2020/10/16 05:49:23;;;;;;;15.65;8.95;;;;;;;6.61;100;94977.47;;;;
2020/10/16 05:50:34;;;;;;;15.65;8.95;;;;;;;6.61;100;94977.47;;;;
2020/10/16 05:51:40;;;;;;;15.65;8.95;;;;;;;6.61;100;94977.47;;;;
2020/10/16 05:52:49;;;;;;;15.65;8.95;;;;;;;6.61;100;94977.47;;;;
2020/10/16 05:53:52;;;;;;;15.65;8.95;;;;;;;6.61;100;94977.47;;;;
2020/10/16 05:54:54;;;;;;;15.65;8.95;;;;;;;6.61;100;94977.47;;;;
2020/10/16 05:55:56;;;;;;;15.65;8.95;;;;;;;6.61;100;94977.47;;;;
2020/10/16 05:56:57;;;;;;;15.65;8.95;;;;;;;6.61;100;94977.47;;;;
2020/10/16 05:57:57;;;;;;;15.65;8.95;;;;;;;6.61;100;94977.47;;;;
2020/10/16 05:59:19;;;;;;;15.65;8.95;;;;;;;6.61;100;94977.47;;;;
2020/10/16 06:00:30;;;;;;;15.2;9.049999;;;;;;;6.6;100;94978.1;;;;
2020/10/16 06:02:36;;;;;;;15.2;9.049999;;;;;;;6.6;100;94978.1;;;;
2020/10/16 06:03:37;;;;;;;15.2;9.049999;;;;;;;6.6;100;94978.1;;;;
2020/10/16 06:04:41;;;;;;;15.2;9.049999;;;;;;;6.6;100;94978.1;;;;
2020/10/16 06:05:42;;;;;;;15.2;9.049999;;;;;;;6.6;100;94978.1;;;;
2020/10/16 06:06:48;;;;;;;15.2;9.049999;;;;;;;6.6;100;94978.1;;;;
2020/10/16 06:07:48;;;;;;;15.2;9.049999;;;;;;;6.6;100;94978.1;;;;
2020/10/16 06:08:52;;;;;;;15.2;9.049999;;;;;;;6.6;100;94978.1;;;;
2020/10/16 06:09:52;;;;;;;15.2;9.049999;;;;;;;6.6;100;94978.1;;;;
2020/10/16 06:10:57;;;;;;;15.05;8.950001;;;;;;;6.61;100;94986.85;;;;
2020/10/16 06:11:58;;;;;;;15.05;8.950001;;;;;;;6.61;100;94986.85;;;;
2020/10/16 06:13:02;;;;;;;15.05;8.950001;;;;;;;6.61;100;94986.85;;;;
2020/10/16 06:14:38;;;;;;;15.05;8.950001;;;;;;;6.61;100;94986.85;;;;
2020/10/16 06:15:40;;;;;;;15.05;8.950001;;;;;;;6.61;100;94986.85;;;;
2020/10/16 06:16:43;;;;;;;15.05;8.950001;;;;;;;6.61;100;94986.85;;;;
2020/10/16 06:17:44;;;;;;;15.05;8.950001;;;;;;;6.61;100;94986.85;;;;
2020/10/16 06:18:45;;;;;;;15.05;8.950001;;;;;;;6.61;100;94986.85;;;;
2020/10/16 06:19:49;;;;;;;15.05;8.950001;;;;;;;6.61;100;94986.85;;;;
2020/10/16 06:20:51;;;;;;;15.05;8.950001;;;;;;;6.61;100;94986.85;;;;
2020/10/16 06:21:53;;;;;;;13.6;8.599999;;;;;;;6.67;100;94994.45;;;;
2020/10/16 06:22:53;;;;;;;13.6;8.599999;;;;;;;6.67;100;94994.45;;;;
2020/10/16 06:23:56;;;;;;;13.6;8.599999;;;;;;;6.67;100;94994.45;;;;
2020/10/16 06:24:57;;;;;;;13.6;8.599999;;;;;;;6.67;100;94994.45;;;;
2020/10/16 06:25:57;;;;;;;13.6;8.599999;;;;;;;6.67;100;94994.45;;;;
2020/10/16 06:26:58;;;;;;;13.6;8.599999;;;;;;;6.67;100;94994.45;;;;
2020/10/16 06:28:01;;;;;;;13.6;8.599999;;;;;;;6.67;100;94994.45;;;;
2020/10/16 06:29:05;;;;;;;13.6;8.599999;;;;;;;6.67;100;94994.45;;;;
2020/10/16 06:30:05;;;;;;;13.6;8.599999;;;;;;;6.67;100;94994.45;;;;
2020/10/16 06:31:07;;;;;;;13.6;8.599999;;;;;;;6.67;100;94994.45;;;;
2020/10/16 06:32:10;;;;;;;14.7;9.25;;;;;;;6.77;100;95005.91;;;;
2020/10/16 06:33:13;;;;;;;14.7;9.25;;;;;;;6.77;100;95005.91;;;;
2020/10/16 06:35:21;;;;;;;14.7;9.25;;;;;;;6.77;100;95005.91;;;;
2020/10/16 06:36:21;;;;;;;14.7;9.25;;;;;;;6.77;100;95005.91;;;;
2020/10/16 06:37:29;;;;;;;14.7;9.25;;;;;;;6.77;100;95005.91;;;;
2020/10/16 06:38:30;;;;;;;14.7;9.25;;;;;;;6.77;100;95005.91;;;;
2020/10/16 06:39:31;;;;;;;14.7;9.25;;;;;;;6.77;100;95005.91;;;;
2020/10/16 06:40:41;;;;;;;14.7;9.25;;;;;;;6.77;100;95005.91;;;;
2020/10/16 06:41:41;;;;;;;14.7;9.25;;;;;;;6.77;100;95005.91;;;;
2020/10/16 06:42:47;;;;;;;14.1;8.6;;;;;;;6.85;100;95013.67;;;;
2020/10/16 06:43:56;;;;;;;14.1;8.6;;;;;;;6.85;100;95013.67;;;;
2020/10/16 06:44:56;;;;;;;14.1;8.6;;;;;;;6.85;100;95013.67;;;;
2020/10/16 06:46:00;;;;;;;14.1;8.6;;;;;;;6.85;100;95013.67;;;;
2020/10/16 06:47:00;;;;;;;14.1;8.6;;;;;;;6.85;100;95013.67;;;;
2020/10/16 06:48:08;;;;;;;14.1;8.6;;;;;;;6.85;100;95013.67;;;;
2020/10/16 06:49:08;;;;;;;14.1;8.6;;;;;;;6.85;100;95013.67;;;;
2020/10/16 06:50:14;;;;;;;14.1;8.6;;;;;;;6.85;100;95013.67;;;;
2020/10/16 06:51:14;;;;;;;14.1;8.6;;;;;;;6.85;100;95013.67;;;;
2020/10/16 06:52:15;;;;;;;14.1;8.6;;;;;;;6.85;100;95013.67;;;;
2020/10/16 06:53:20;;;;;;;13.7;8.599999;;;;;;;6.86;100;95022.04;;;;
2020/10/16 06:54:23;;;;;;;13.7;8.599999;;;;;;;6.86;100;95022.04;;;;
2020/10/16 06:55:32;;;;;;;13.7;8.599999;;;;;;;6.86;100;95022.04;;;;
2020/10/16 06:56:35;;;;;;;13.7;8.599999;;;;;;;6.86;100;95022.04;;;;
2020/10/16 06:57:35;;;;;;;13.7;8.599999;;;;;;;6.86;100;95022.04;;;;